createdAt,value
2022-10-02T00:00:07.410Z,2.10
2022-10-02T00:02:44.033Z,1.98
2022-10-02T00:05:18.557Z,2.10
2022-10-02T00:07:53.520Z,1.73
2022-10-02T00:10:30.672Z,2.25
2022-10-02T00:13:05.057Z,1.85
2022-10-02T00:15:38.440Z,2.80
2022-10-02T00:18:14.773Z,2.00
2022-10-02T00:20:51.858Z,1.77
2022-10-02T00:23:28.428Z,1.15
2022-10-02T00:26:03.971Z,1.95
2022-10-02T00:28:42.115Z,1.60
2022-10-02T00:31:32.082Z,2.17
2022-10-02T00:34:21.942Z,2.92
2022-10-02T00:37:03.813Z,4.00
2022-10-02T00:39:48.474Z,2.97
2022-10-02T00:43:01.862Z,2.55
2022-10-02T00:45:58.495Z,2.22
2022-10-02T00:52:03.468Z,1.55
2022-10-02T00:55:25.730Z,1.50
2022-10-02T00:58:22.329Z,1.50
2022-10-02T01:01:04.874Z,1.40
2022-10-02T01:06:08.786Z,1.45
2022-10-02T01:08:40.375Z,1.45
2022-10-02T01:11:10.668Z,1.43
2022-10-02T01:13:40.215Z,1.50
2022-10-02T01:16:14.401Z,1.70
2022-10-02T01:18:48.251Z,1.00
2022-10-02T01:21:28.191Z,1.50
2022-10-02T01:24:07.270Z,1.50
2022-10-02T01:26:38.336Z,1.58
2022-10-02T01:29:07.870Z,1.15
2022-10-02T01:31:38.527Z,1.52
2022-10-02T01:34:08.310Z,2.17
2022-10-02T01:36:38.287Z,1.70
2022-10-02T01:39:08.027Z,1.55
2022-10-02T01:41:44.946Z,1.13
2022-10-02T01:44:15.818Z,1.50
2022-10-02T01:46:57.695Z,1.92
2022-10-02T01:49:46.747Z,1.20
2022-10-02T01:52:38.589Z,1.75
2022-10-02T01:55:28.001Z,1.65
2022-10-02T01:58:16.918Z,1.60
2022-10-02T02:01:02.720Z,1.30
2022-10-02T02:03:46.287Z,1.08
2022-10-02T02:06:27.063Z,1.65
2022-10-02T02:09:09.386Z,1.48
2022-10-02T02:11:45.938Z,1.85
2022-10-02T02:14:21.982Z,1.42
2022-10-02T02:16:56.051Z,1.52
2022-10-02T02:19:31.512Z,1.63
2022-10-02T02:22:05.926Z,1.17
2022-10-02T02:24:41.871Z,2.20
2022-10-02T02:27:17.608Z,1.75
2022-10-02T02:29:54.092Z,1.15
2022-10-02T02:32:28.926Z,1.38
2022-10-02T02:35:06.332Z,1.80
2022-10-02T02:37:40.373Z,1.80
2022-10-02T02:40:15.036Z,2.45
2022-10-02T02:42:51.265Z,2.13
2022-10-02T02:45:25.771Z,2.42
2022-10-02T02:47:59.730Z,2.58
2022-10-02T02:50:34.859Z,2.53
2022-10-02T02:53:11.729Z,3.25
2022-10-02T02:55:47.814Z,3.00
2022-10-02T02:58:22.287Z,2.22
2022-10-02T03:00:53.281Z,1.80
2022-10-02T03:03:22.972Z,1.20
2022-10-02T03:06:02.272Z,0.95
2022-10-02T03:08:35.591Z,1.45
2022-10-02T03:11:15.709Z,0.90
2022-10-02T03:13:59.091Z,1.17
2022-10-02T03:16:48.445Z,0.80
2022-10-02T03:19:31.165Z,1.60
2022-10-02T03:22:13.137Z,1.10
2022-10-02T03:24:51.217Z,1.30
2022-10-02T03:27:34.665Z,0.77
2022-10-02T03:30:09.984Z,1.10
2022-10-02T03:32:44.286Z,0.95
2022-10-02T03:35:15.809Z,0.57
2022-10-02T03:37:48.730Z,1.13
2022-10-02T03:40:18.495Z,1.55
2022-10-02T03:42:47.848Z,0.80
2022-10-02T03:45:39.065Z,0.63
2022-10-02T03:48:08.324Z,1.13
2022-10-02T03:52:49.770Z,1.02
2022-10-02T03:55:32.791Z,0.20
2022-10-02T03:58:11.351Z,0.30
2022-10-02T04:00:48.551Z,0.10
2022-10-02T04:03:24.948Z,0.15
2022-10-02T04:06:00.744Z,0.10
2022-10-02T04:08:38.027Z,0.10
2022-10-02T04:11:13.789Z,0.20
2022-10-02T04:13:48.587Z,0.60
2022-10-02T04:16:25.659Z,0.20
2022-10-02T04:19:00.432Z,0.10
2022-10-02T04:21:38.380Z,0.20
2022-10-02T04:24:19.872Z,0.35
2022-10-02T04:27:00.568Z,0.30
2022-10-02T04:29:35.811Z,0.20
2022-10-02T04:32:16.291Z,0.70
2022-10-02T04:34:46.104Z,0.20
2022-10-02T04:37:38.886Z,0.10
2022-10-02T04:40:36.647Z,0.10
2022-10-02T04:43:31.864Z,0.10
2022-10-02T04:46:15.035Z,0.10
2022-10-02T04:49:35.076Z,0.10
2022-10-02T04:52:26.101Z,0.20
2022-10-02T04:55:23.351Z,0.22
2022-10-02T04:58:25.270Z,0.20
2022-10-02T05:01:11.964Z,0.20
2022-10-02T05:04:11.346Z,0.10
2022-10-02T05:07:03.115Z,0.20
2022-10-02T05:09:37.836Z,0.20
2022-10-02T05:12:29.306Z,0.20
2022-10-02T05:15:26.327Z,0.30
2022-10-02T05:18:17.735Z,0.70
2022-10-02T05:21:11.311Z,0.43
2022-10-02T05:24:01.606Z,0.45
2022-10-02T05:27:02.876Z,0.57
2022-10-02T05:30:07.278Z,1.20
2022-10-02T05:33:18.897Z,1.60
2022-10-02T05:36:23.887Z,1.42
2022-10-02T05:39:10.289Z,0.95
2022-10-02T05:41:50.282Z,0.80
2022-10-02T05:44:25.947Z,1.30
2022-10-02T05:47:03.108Z,1.88
2022-10-02T05:49:38.709Z,1.23
2022-10-02T05:52:15.508Z,0.90
2022-10-02T05:54:53.023Z,0.47
2022-10-02T05:57:32.326Z,0.65
2022-10-02T06:00:16.438Z,0.77
2022-10-02T06:02:57.451Z,0.60
2022-10-02T06:05:36.244Z,0.47
2022-10-02T06:08:09.031Z,0.75
2022-10-02T06:10:46.330Z,0.40
2022-10-02T06:13:24.704Z,0.60
2022-10-02T06:16:11.881Z,0.25
2022-10-02T06:18:49.329Z,0.40
2022-10-02T06:21:33.646Z,0.43
2022-10-02T06:24:07.674Z,0.40
2022-10-02T06:26:45.607Z,0.50
2022-10-02T06:29:26.922Z,0.30
2022-10-02T06:32:10.488Z,0.30
2022-10-02T06:34:44.617Z,0.32
2022-10-02T06:37:57.731Z,0.35
2022-10-02T06:40:52.369Z,0.55
2022-10-02T06:43:51.358Z,0.40
2022-10-02T06:46:30.188Z,0.20
2022-10-02T06:49:06.192Z,0.20
2022-10-02T06:52:58.249Z,0.20
2022-10-02T06:55:45.868Z,0.22
2022-10-02T06:58:42.509Z,0.20
2022-10-02T07:01:28.831Z,0.30
2022-10-02T07:04:18.221Z,0.20
2022-10-02T07:07:04.711Z,0.28
2022-10-02T07:09:57.712Z,0.20
2022-10-02T07:13:00.808Z,0.20
2022-10-02T07:16:16.138Z,0.20
2022-10-02T07:19:13.405Z,0.10
2022-10-02T07:21:55.290Z,0.20
2022-10-02T07:24:49.470Z,0.22
2022-10-02T07:27:27.384Z,0.20
2022-10-02T07:30:05.987Z,0.10
2022-10-02T07:32:49.026Z,0.10
2022-10-02T07:35:46.728Z,0.10
2022-10-02T07:38:49.638Z,0.10
2022-10-02T07:44:49.109Z,0.20
2022-10-02T07:47:40.691Z,0.20
2022-10-02T07:50:25.448Z,0.10
2022-10-02T07:53:06.615Z,0.20
2022-10-02T07:55:38.036Z,0.00
2022-10-02T07:58:15.888Z,0.10
2022-10-02T08:00:50.750Z,0.10
2022-10-02T08:03:24.820Z,0.00
2022-10-02T08:05:57.188Z,0.65
2022-10-02T08:11:09.268Z,0.03
2022-10-02T08:13:46.166Z,0.10
2022-10-02T08:16:18.026Z,0.10
2022-10-02T08:18:54.588Z,0.10
2022-10-02T08:21:26.764Z,0.00
2022-10-02T08:24:01.716Z,0.10
2022-10-02T08:26:36.639Z,0.00
2022-10-02T08:29:13.710Z,0.08
2022-10-02T08:31:43.265Z,0.00
2022-10-02T08:34:21.214Z,0.00
2022-10-02T08:37:22.233Z,0.10
2022-10-02T08:40:26.010Z,0.10
2022-10-02T08:43:33.591Z,0.10
2022-10-02T08:46:58.651Z,0.10
2022-10-02T08:50:15.992Z,0.00
2022-10-02T08:53:49.228Z,0.00
2022-10-02T08:56:37.739Z,0.00
2022-10-02T09:00:11.671Z,0.00
2022-10-02T09:03:33.611Z,0.00
2022-10-02T09:06:50.389Z,0.00
2022-10-02T09:10:11.952Z,0.03
2022-10-02T09:13:42.636Z,0.00
2022-10-02T09:16:16.529Z,0.00
2022-10-02T09:19:01.851Z,0.00
2022-10-02T09:21:54.978Z,0.00
2022-10-02T09:25:16.768Z,0.00
2022-10-02T09:28:36.733Z,0.00
2022-10-02T09:31:55.830Z,0.00
2022-10-02T09:35:20.531Z,0.05
2022-10-02T09:38:47.050Z,0.00
2022-10-02T09:42:04.197Z,0.00
2022-10-02T09:45:28.845Z,0.00
2022-10-02T09:53:48.471Z,0.00
2022-10-02T09:57:02.650Z,0.00
2022-10-02T10:00:00.305Z,0.00
2022-10-02T10:03:46.801Z,0.00
2022-10-02T10:06:54.528Z,0.00
2022-10-02T10:10:32.149Z,0.00
2022-10-02T10:14:00.900Z,0.00
2022-10-02T10:17:19.691Z,0.05
2022-10-02T10:20:22.498Z,0.00
2022-10-02T10:26:16.864Z,0.00
2022-10-02T10:29:50.987Z,0.00
2022-10-02T10:33:20.485Z,0.00
2022-10-02T10:36:45.892Z,0.08
2022-10-02T10:39:52.968Z,0.00
2022-10-02T10:43:07.760Z,0.00
2022-10-02T10:46:09.434Z,0.00
2022-10-02T10:49:11.829Z,0.00
2022-10-02T10:51:52.751Z,0.00
2022-10-02T10:55:17.545Z,0.00
2022-10-02T10:58:21.410Z,0.00
2022-10-02T11:01:08.501Z,0.00
2022-10-02T11:04:06.327Z,0.00
2022-10-02T11:07:26.494Z,0.43
2022-10-02T11:10:33.541Z,0.00
2022-10-02T11:13:28.760Z,0.00
2022-10-02T11:16:45.632Z,0.00
2022-10-02T11:20:03.006Z,0.00
2022-10-02T11:22:59.470Z,0.15
2022-10-02T11:25:58.024Z,0.08
2022-10-02T11:28:59.642Z,0.00
2022-10-02T11:32:10.314Z,0.00
2022-10-02T11:35:26.648Z,0.00
2022-10-02T11:38:50.186Z,0.00
2022-10-02T11:42:06.985Z,0.00
2022-10-02T11:44:57.754Z,0.00
2022-10-02T11:48:19.767Z,0.00
2022-10-02T11:51:40.325Z,0.00
2022-10-02T11:54:33.794Z,0.00
2022-10-02T11:57:36.491Z,0.00
2022-10-02T12:03:19.590Z,0.00
2022-10-02T12:06:00.787Z,0.00
2022-10-02T12:08:47.242Z,0.00
2022-10-02T12:11:26.095Z,0.15
2022-10-02T12:14:07.836Z,0.00
2022-10-02T12:16:56.446Z,0.00
2022-10-02T12:20:08.070Z,0.00
2022-10-02T12:23:00.890Z,0.00
2022-10-02T12:26:02.173Z,0.00
2022-10-02T12:28:43.008Z,0.00
2022-10-02T12:31:20.809Z,0.00
2022-10-02T12:34:01.634Z,0.00
2022-10-02T12:36:58.495Z,0.20
2022-10-02T12:39:43.878Z,0.00
2022-10-02T12:42:49.714Z,0.00
2022-10-02T14:49:53.429Z,0.10
2022-10-02T14:52:44.100Z,0.10
2022-10-02T14:55:39.492Z,0.30
2022-10-02T14:58:36.408Z,0.10
2022-10-02T15:01:21.567Z,0.00
2022-10-02T15:04:22.658Z,0.10
2022-10-02T15:07:08.646Z,0.10
2022-10-02T15:10:08.848Z,0.10
2022-10-02T15:12:50.471Z,0.10
2022-10-02T15:15:28.503Z,0.10
2022-10-02T15:18:21.316Z,0.20
2022-10-02T15:23:45.792Z,0.10
2022-10-02T15:26:49.941Z,0.15
2022-10-02T15:29:34.827Z,0.10
2022-10-02T15:32:35.611Z,0.10
2022-10-02T15:35:31.210Z,0.30
2022-10-02T15:38:25.405Z,0.20
2022-10-02T15:41:22.788Z,0.15
2022-10-02T15:44:06.979Z,0.20
2022-10-02T15:46:51.652Z,0.25
2022-10-02T15:53:01.484Z,0.40
2022-10-02T15:55:40.118Z,0.20
2022-10-02T15:58:26.561Z,0.30
2022-10-02T16:01:31.207Z,0.20
2022-10-02T16:04:09.930Z,0.30
2022-10-02T16:07:27.561Z,0.30
2022-10-02T16:10:20.573Z,0.20
2022-10-02T16:13:38.035Z,0.30
2022-10-02T16:16:44.383Z,0.40
2022-10-02T16:19:33.117Z,0.43
2022-10-02T16:22:22.598Z,0.40
2022-10-02T16:25:14.308Z,0.55
2022-10-02T16:28:15.105Z,0.50
2022-10-02T16:31:09.738Z,0.60
2022-10-02T16:33:57.370Z,0.95
2022-10-02T16:36:40.570Z,1.20
2022-10-02T16:39:40.742Z,1.10
2022-10-02T16:42:22.912Z,0.70
2022-10-02T16:45:14.310Z,1.20
2022-10-02T16:47:52.133Z,1.08
2022-10-02T16:50:27.607Z,0.80
2022-10-02T16:53:04.552Z,1.17
2022-10-02T16:55:39.102Z,0.95
2022-10-02T16:58:26.248Z,1.40
2022-10-02T17:00:59.633Z,0.95
2022-10-02T17:03:36.872Z,0.80
2022-10-02T17:06:18.163Z,0.93
2022-10-02T17:08:55.055Z,0.70
2022-10-02T17:11:31.707Z,1.05
2022-10-02T17:14:18.584Z,1.20
2022-10-02T17:16:56.837Z,1.15
2022-10-02T17:19:34.410Z,1.20
2022-10-02T17:22:11.730Z,1.35
2022-10-02T17:24:51.871Z,0.93
2022-10-02T17:27:42.609Z,0.70
2022-10-02T17:30:24.384Z,0.82
2022-10-02T17:33:07.853Z,0.60
2022-10-02T17:35:48.951Z,0.30
2022-10-02T17:39:11.309Z,0.40
2022-10-02T17:41:53.046Z,0.50
2022-10-02T17:44:48.693Z,0.77
2022-10-02T17:47:54.632Z,0.50
2022-10-02T17:50:55.955Z,0.45
2022-10-02T17:54:18.426Z,0.70
2022-10-02T17:57:17.346Z,0.50
2022-10-02T18:00:12.207Z,0.65
2022-10-02T18:03:15.172Z,0.60
2022-10-02T18:06:11.731Z,0.57
2022-10-02T18:09:30.947Z,0.38
2022-10-02T18:12:32.111Z,0.60
2022-10-02T18:15:20.365Z,0.60
2022-10-02T18:18:08.587Z,0.82
2022-10-02T18:20:50.455Z,1.45
2022-10-02T18:24:00.574Z,1.50
2022-10-02T18:26:45.994Z,0.77
2022-10-02T18:29:34.055Z,1.23
2022-10-02T18:32:25.307Z,0.70
2022-10-02T18:35:11.072Z,1.00
2022-10-02T18:38:14.347Z,1.05
2022-10-02T18:41:06.174Z,1.20
2022-10-02T18:44:03.206Z,1.58
2022-10-02T18:46:48.410Z,2.40
2022-10-02T18:53:04.549Z,3.53
2022-10-02T18:56:02.936Z,2.83
2022-10-02T18:58:52.814Z,2.33
2022-10-02T19:01:56.912Z,2.22
2022-10-02T19:04:47.726Z,2.30
2022-10-02T19:07:22.857Z,1.52
2022-10-02T19:10:28.987Z,1.60
2022-10-02T19:13:04.765Z,1.42
2022-10-02T19:15:36.827Z,1.77
2022-10-02T19:18:16.445Z,1.75
2022-10-02T19:20:54.708Z,1.13
2022-10-02T19:23:31.117Z,2.17
2022-10-02T19:26:08.107Z,2.30
2022-10-02T19:28:49.009Z,1.17
2022-10-02T19:31:24.419Z,1.58
2022-10-02T19:33:57.862Z,0.90
2022-10-02T19:36:30.589Z,2.80
2022-10-02T19:39:05.347Z,2.38
2022-10-02T19:41:43.021Z,1.80
2022-10-02T19:44:25.244Z,2.83
2022-10-02T19:46:58.746Z,1.83
2022-10-02T19:49:31.538Z,1.98
2022-10-02T19:52:01.152Z,1.60
2022-10-02T19:54:37.454Z,1.77
2022-10-02T19:57:16.690Z,1.88
2022-10-02T19:59:50.209Z,1.70
2022-10-02T20:02:26.732Z,1.42
2022-10-02T20:05:02.070Z,1.23
2022-10-02T20:07:35.517Z,1.00
2022-10-02T20:10:14.051Z,1.33
2022-10-02T20:12:50.008Z,1.30
2022-10-02T20:15:56.304Z,0.93
2022-10-02T20:18:24.907Z,1.33
2022-10-02T20:20:59.845Z,1.08
2022-10-02T20:23:34.192Z,1.20
2022-10-02T20:26:09.709Z,0.75
2022-10-02T20:28:47.950Z,1.42
2022-10-02T20:31:22.120Z,0.88
2022-10-02T20:33:56.570Z,1.02
2022-10-02T20:36:31.452Z,0.82
2022-10-02T20:39:05.370Z,0.88
2022-10-02T20:41:54.987Z,1.05
2022-10-02T20:44:26.652Z,0.98
2022-10-02T20:47:51.423Z,0.70
2022-10-02T20:50:41.843Z,0.65
2022-10-02T20:54:06.609Z,0.70
2022-10-02T20:57:55.994Z,0.60
2022-10-02T21:00:23.487Z,0.60
2022-10-02T21:03:39.888Z,0.38
2022-10-02T21:06:56.490Z,0.60
2022-10-02T21:10:13.230Z,0.70
2022-10-02T21:13:40.727Z,1.02
2022-10-02T21:16:59.537Z,0.60
2022-10-02T21:20:06.194Z,0.73
2022-10-02T21:23:23.528Z,0.77
2022-10-02T21:26:48.630Z,0.73
2022-10-02T21:29:36.815Z,0.40
2022-10-02T21:32:42.944Z,0.52
2022-10-02T21:35:34.331Z,0.50
2022-10-02T21:38:41.123Z,0.80
2022-10-02T21:41:53.234Z,0.47
2022-10-02T21:45:19.208Z,0.50
2022-10-02T21:48:48.331Z,0.50
2022-10-02T21:53:30.830Z,0.43
2022-10-02T21:57:04.908Z,0.50
2022-10-02T22:00:16.081Z,0.30
2022-10-02T22:03:41.703Z,0.40
2022-10-02T22:06:36.693Z,0.40
2022-10-02T22:09:39.173Z,0.43
2022-10-02T22:12:31.248Z,0.87
2022-10-02T22:15:14.010Z,0.68
2022-10-02T22:17:56.353Z,0.82
2022-10-02T22:21:01.328Z,0.30
2022-10-02T22:23:51.585Z,0.80
2022-10-02T22:26:49.770Z,3.47
2022-10-02T22:29:27.206Z,3.08
2022-10-02T22:33:00.469Z,4.78
2022-10-02T22:35:45.723Z,3.53
2022-10-02T22:38:22.516Z,4.32
2022-10-02T22:40:57.038Z,4.05
2022-10-02T22:43:35.030Z,4.07
2022-10-02T22:46:17.886Z,3.88
2022-10-02T22:51:26.683Z,2.13
2022-10-02T22:54:06.709Z,1.75
2022-10-02T22:56:44.089Z,2.13
2022-10-02T22:59:22.349Z,2.00
2022-10-02T23:01:58.483Z,1.65
2022-10-02T23:04:37.771Z,1.30
2022-10-02T23:07:17.570Z,1.40
2022-10-02T23:09:53.315Z,1.58
2022-10-02T23:12:33.226Z,0.70
2022-10-02T23:15:29.970Z,1.02
2022-10-02T23:18:05.553Z,0.93
2022-10-02T23:20:41.513Z,0.82
2022-10-02T23:23:19.493Z,0.50
2022-10-02T23:25:53.892Z,0.43
2022-10-02T23:28:32.482Z,0.38
2022-10-02T23:31:17.059Z,0.57
2022-10-02T23:33:55.231Z,0.50
2022-10-02T23:36:32.757Z,0.40
2022-10-02T23:39:12.761Z,0.30
2022-10-02T23:41:49.889Z,0.20
2022-10-02T23:44:35.951Z,0.20
2022-10-02T23:47:22.390Z,0.25
2022-10-02T23:49:55.050Z,0.30
2022-10-02T23:53:00.989Z,0.20
2022-10-02T23:55:58.248Z,0.20
2022-10-02T23:59:09.553Z,0.25
